createdAt,value
2019-02-06T00:00:56.148Z,1023.93
2019-02-06T00:01:56.136Z,1023.93
2019-02-06T00:02:56.241Z,1023.92
2019-02-06T00:03:56.101Z,1023.88
2019-02-06T00:04:56.090Z,1023.91
2019-02-06T00:05:56.085Z,1023.91
2019-02-06T00:06:56.068Z,1023.92
2019-02-06T00:07:56.095Z,1023.92
2019-02-06T00:08:56.042Z,1023.92
2019-02-06T00:09:56.042Z,1023.93
2019-02-06T00:10:56.050Z,1023.96
2019-02-06T00:11:56.018Z,1024.04
2019-02-06T00:12:56.044Z,1024.01
2019-02-06T00:13:56.019Z,1024.03
2019-02-06T00:14:55.980Z,1024.02
2019-02-06T00:15:55.967Z,1024.04
2019-02-06T00:16:55.976Z,1024.07
2019-02-06T00:17:55.956Z,1024.06
2019-02-06T00:18:55.983Z,1024.12
2019-02-06T00:19:55.937Z,1024.08
2019-02-06T00:20:55.913Z,1024.07
2019-02-06T00:21:55.910Z,1024.02
2019-02-06T00:22:55.891Z,1024.03
2019-02-06T00:23:55.914Z,1024.02
2019-02-06T00:24:55.871Z,1024.04
2019-02-06T00:25:55.862Z,1024.07
2019-02-06T00:26:55.852Z,1024.02
2019-02-06T00:27:55.845Z,1024.04
2019-02-06T00:28:55.862Z,1024.00
2019-02-06T00:29:55.814Z,1024.01
2019-02-06T00:30:55.811Z,1024.04
2019-02-06T00:31:55.787Z,1024.00
2019-02-06T00:32:55.901Z,1024.05
2019-02-06T00:33:56.066Z,1024.01
2019-02-06T00:34:55.759Z,1024.03
2019-02-06T00:35:55.752Z,1024.00
2019-02-06T00:36:55.757Z,1024.04
2019-02-06T00:37:55.723Z,1024.00
2019-02-06T00:38:55.749Z,1023.99
2019-02-06T00:39:55.712Z,1023.97
2019-02-06T00:40:55.698Z,1023.99
2019-02-06T00:41:55.679Z,1023.95
2019-02-06T00:42:55.672Z,1023.99
2019-02-06T00:43:55.659Z,1024.00
2019-02-06T00:44:55.663Z,1024.01
2019-02-06T00:45:55.637Z,1024.01
2019-02-06T00:46:55.623Z,1024.05
2019-02-06T00:47:55.615Z,1024.07
2019-02-06T00:48:55.602Z,1023.96
2019-02-06T00:49:55.608Z,1024.00
2019-02-06T00:50:55.578Z,1024.02
2019-02-06T00:51:55.565Z,1023.98
2019-02-06T00:52:55.559Z,1024.01
2019-02-06T00:53:55.564Z,1024.02
2019-02-06T00:54:55.565Z,1024.01
2019-02-06T00:55:55.534Z,1023.98
2019-02-06T00:56:55.513Z,1024.01
2019-02-06T00:57:55.501Z,1024.04
2019-02-06T00:58:55.490Z,1024.04
2019-02-06T00:59:58.453Z,1023.97
2019-02-06T01:00:55.468Z,1023.97
2019-02-06T01:01:55.454Z,1023.95
2019-02-06T01:02:55.442Z,1023.95
2019-02-06T01:03:55.434Z,1023.94
2019-02-06T01:04:55.442Z,1023.94
2019-02-06T01:05:55.413Z,1023.97
2019-02-06T01:06:55.408Z,1023.98
2019-02-06T01:07:55.388Z,1023.98
2019-02-06T01:08:55.381Z,1024.03
2019-02-06T01:09:55.381Z,1024.04
2019-02-06T01:10:55.358Z,1024.02
2019-02-06T01:11:55.351Z,1024.02
2019-02-06T01:12:55.359Z,1024.08
2019-02-06T01:13:55.323Z,1024.04
2019-02-06T01:14:55.357Z,1024.10
2019-02-06T01:15:55.304Z,1024.07
2019-02-06T01:16:55.321Z,1024.09
2019-02-06T01:17:55.291Z,1024.07
2019-02-06T01:18:55.264Z,1024.08
2019-02-06T01:19:55.270Z,1024.09
2019-02-06T01:20:55.242Z,1024.07
2019-02-06T01:21:55.244Z,1024.09
2019-02-06T01:22:55.220Z,1024.07
2019-02-06T01:23:55.210Z,1024.03
2019-02-06T01:24:55.226Z,1024.02
2019-02-06T01:25:55.189Z,1024.05
2019-02-06T01:26:55.186Z,1024.03
2019-02-06T01:27:55.175Z,1024.04
2019-02-06T01:28:55.163Z,1024.04
2019-02-06T01:29:55.167Z,1024.06
2019-02-06T01:30:55.134Z,1024.04
2019-02-06T01:31:55.118Z,1024.08
2019-02-06T01:32:55.120Z,1024.07
2019-02-06T01:33:55.102Z,1024.07
2019-02-06T01:34:55.108Z,1024.08
2019-02-06T01:35:55.090Z,1024.09
2019-02-06T01:36:55.071Z,1024.09
2019-02-06T01:37:55.052Z,1024.07
2019-02-06T01:38:55.046Z,1024.06
2019-02-06T01:39:55.054Z,1024.06
2019-02-06T01:40:55.079Z,1024.11
2019-02-06T01:41:55.011Z,1024.08
2019-02-06T01:42:55.006Z,1024.07
2019-02-06T01:43:54.989Z,1024.09
2019-02-06T01:44:55.026Z,1024.13
2019-02-06T01:45:54.985Z,1024.09
2019-02-06T01:46:55.014Z,1024.12
2019-02-06T01:47:54.943Z,1024.10
2019-02-06T01:48:54.932Z,1024.11
2019-02-06T01:49:54.923Z,1024.13
2019-02-06T01:50:54.930Z,1024.13
2019-02-06T01:51:54.903Z,1024.15
2019-02-06T01:52:54.882Z,1024.13
2019-02-06T01:53:54.873Z,1024.08
2019-02-06T01:54:54.876Z,1024.13
2019-02-06T01:55:54.879Z,1024.12
2019-02-06T01:56:54.845Z,1024.09
2019-02-06T01:57:54.842Z,1024.08
2019-02-06T01:58:54.819Z,1024.10
2019-02-06T01:59:54.809Z,1024.08
2019-02-06T02:00:54.824Z,1024.08
2019-02-06T02:01:54.786Z,1024.11
2019-02-06T02:02:54.777Z,1024.06
2019-02-06T02:03:54.778Z,1024.13
2019-02-06T02:04:54.749Z,1024.09
2019-02-06T02:06:02.484Z,1024.10
2019-02-06T02:06:55.732Z,1024.07
2019-02-06T02:07:54.722Z,1024.12
2019-02-06T02:08:54.717Z,1024.10
2019-02-06T02:09:54.696Z,1024.09
2019-02-06T02:10:54.715Z,1024.14
2019-02-06T02:11:54.675Z,1024.04
2019-02-06T02:12:54.662Z,1024.07
2019-02-06T02:13:54.660Z,1024.07
2019-02-06T02:14:54.647Z,1024.04
2019-02-06T02:15:54.729Z,1024.03
2019-02-06T02:16:54.667Z,1024.03
2019-02-06T02:17:54.627Z,1023.99
2019-02-06T02:18:54.602Z,1023.98
2019-02-06T02:19:54.594Z,1023.97
2019-02-06T02:20:54.583Z,1023.96
2019-02-06T02:21:54.609Z,1023.96
2019-02-06T02:22:54.555Z,1023.94
2019-02-06T02:23:54.554Z,1023.92
2019-02-06T02:24:54.530Z,1023.88
2019-02-06T02:25:54.557Z,1023.90
2019-02-06T02:26:54.533Z,1023.90
2019-02-06T02:27:54.517Z,1023.92
2019-02-06T02:28:54.489Z,1023.92
2019-02-06T02:29:54.483Z,1023.97
2019-02-06T02:30:54.466Z,1024.00
2019-02-06T02:31:54.474Z,1024.06
2019-02-06T02:32:54.446Z,1024.05
2019-02-06T02:33:54.433Z,1024.07
2019-02-06T02:34:54.421Z,1024.08
2019-02-06T02:35:54.424Z,1024.11
2019-02-06T02:36:54.397Z,1024.10
2019-02-06T02:37:54.402Z,1024.13
2019-02-06T02:38:54.377Z,1024.13
2019-02-06T02:39:54.373Z,1024.13
2019-02-06T02:40:54.356Z,1024.11
2019-02-06T02:41:54.350Z,1024.08
2019-02-06T02:42:54.348Z,1024.08
2019-02-06T02:43:54.322Z,1024.04
2019-02-06T02:44:54.308Z,1024.04
2019-02-06T02:45:54.298Z,1024.07
2019-02-06T02:46:54.307Z,1024.06
2019-02-06T02:47:54.293Z,1024.02
2019-02-06T02:48:54.283Z,1024.01
2019-02-06T02:49:54.264Z,1024.01
2019-02-06T02:50:54.246Z,1024.08
2019-02-06T02:51:54.235Z,1024.08
2019-02-06T02:52:54.246Z,1024.07
2019-02-06T02:53:54.219Z,1024.10
2019-02-06T02:54:54.200Z,1024.09
2019-02-06T02:55:54.190Z,1024.13
2019-02-06T02:56:54.181Z,1024.11
2019-02-06T02:57:54.178Z,1024.09
2019-02-06T02:58:54.151Z,1024.08
2019-02-06T02:59:54.148Z,1024.04
2019-02-06T03:00:54.132Z,1024.04
2019-02-06T03:01:54.120Z,1024.01
2019-02-06T03:02:54.132Z,1024.00
2019-02-06T03:03:54.096Z,1023.96
2019-02-06T03:04:54.089Z,1023.96
2019-02-06T03:05:54.085Z,1024.00
2019-02-06T03:06:54.061Z,1023.96
2019-02-06T03:07:54.082Z,1023.95
2019-02-06T03:08:54.043Z,1024.01
2019-02-06T03:09:54.028Z,1024.01
2019-02-06T03:10:54.020Z,1024.00
2019-02-06T03:11:54.005Z,1023.95
2019-02-06T03:12:54.249Z,1023.96
2019-02-06T03:13:53.986Z,1023.98
2019-02-06T03:14:54.040Z,1023.98
2019-02-06T03:15:53.979Z,1023.98
2019-02-06T03:16:53.961Z,1023.96
2019-02-06T03:17:53.969Z,1023.99
2019-02-06T03:18:53.932Z,1024.02
2019-02-06T03:19:53.932Z,1024.01
2019-02-06T03:20:53.908Z,1023.95
2019-02-06T03:21:53.904Z,1023.94
2019-02-06T03:22:53.911Z,1023.90
2019-02-06T03:23:53.872Z,1023.87
2019-02-06T03:24:53.862Z,1023.87
2019-02-06T03:25:53.851Z,1023.86
2019-02-06T03:26:53.837Z,1023.84
2019-02-06T03:27:53.844Z,1023.82
2019-02-06T03:28:53.820Z,1023.80
2019-02-06T03:29:53.809Z,1023.86
2019-02-06T03:30:53.822Z,1023.88
2019-02-06T03:31:53.788Z,1023.86
2019-02-06T03:32:53.795Z,1023.86
2019-02-06T03:33:53.794Z,1023.84
2019-02-06T03:34:53.752Z,1023.85
2019-02-06T03:35:53.740Z,1023.84
2019-02-06T03:36:53.730Z,1023.87
2019-02-06T03:37:53.744Z,1023.86
2019-02-06T03:38:53.717Z,1023.85
2019-02-06T03:39:53.698Z,1023.84
2019-02-06T03:40:53.684Z,1023.89
2019-02-06T03:41:53.677Z,1023.87
2019-02-06T03:42:53.689Z,1023.87
2019-02-06T03:43:53.647Z,1023.86
2019-02-06T03:44:53.649Z,1023.85
2019-02-06T03:45:53.626Z,1023.85
2019-02-06T03:46:53.622Z,1023.86
2019-02-06T03:47:53.625Z,1023.85
2019-02-06T03:48:53.620Z,1023.79
2019-02-06T03:49:53.590Z,1023.86
2019-02-06T03:50:53.585Z,1023.84
2019-02-06T03:51:53.564Z,1023.83
2019-02-06T03:52:53.695Z,1023.78
2019-02-06T03:53:53.568Z,1023.82
2019-02-06T03:54:53.533Z,1023.77
2019-02-06T03:55:53.538Z,1023.80
2019-02-06T03:56:53.505Z,1023.80
2019-02-06T03:57:53.502Z,1023.83
2019-02-06T03:58:53.500Z,1023.73
2019-02-06T03:59:53.478Z,1023.82
2019-02-06T04:00:53.463Z,1023.76
2019-02-06T04:01:53.458Z,1023.76
2019-02-06T04:02:53.436Z,1023.75
2019-02-06T04:03:53.446Z,1023.82
2019-02-06T04:04:53.416Z,1023.77
2019-02-06T04:05:53.411Z,1023.86
2019-02-06T04:07:00.743Z,1023.88
2019-02-06T04:07:54.386Z,1023.90
2019-02-06T04:08:53.385Z,1023.82
2019-02-06T04:09:53.361Z,1023.83
2019-02-06T04:10:53.350Z,1023.86
2019-02-06T04:11:54.088Z,1023.76
2019-02-06T04:12:53.342Z,1023.79
2019-02-06T04:13:53.350Z,1023.77
2019-02-06T04:14:53.306Z,1023.71
2019-02-06T04:15:53.307Z,1023.72
2019-02-06T04:16:53.303Z,1023.83
2019-02-06T04:17:54.499Z,1023.83
2019-02-06T04:18:53.305Z,1023.78
2019-02-06T04:19:53.254Z,1023.75
2019-02-06T04:20:53.237Z,1023.70
2019-02-06T04:21:53.233Z,1023.69
2019-02-06T04:22:53.218Z,1023.72
2019-02-06T04:23:53.205Z,1023.67
2019-02-06T04:24:53.246Z,1023.72
2019-02-06T04:25:53.185Z,1023.67
2019-02-06T04:26:53.169Z,1023.68
2019-02-06T04:27:53.160Z,1023.67
2019-02-06T04:28:53.180Z,1023.70
2019-02-06T04:29:53.150Z,1023.63
2019-02-06T04:30:53.151Z,1023.67
2019-02-06T04:31:53.118Z,1023.63
2019-02-06T04:32:53.151Z,1023.65
2019-02-06T04:33:53.111Z,1023.64
2019-02-06T04:34:53.108Z,1023.67
2019-02-06T04:35:53.078Z,1023.66
2019-02-06T04:37:05.849Z,1023.69
2019-02-06T04:37:54.049Z,1023.66
2019-02-06T04:38:53.053Z,1023.63
2019-02-06T04:39:53.028Z,1023.66
2019-02-06T04:40:53.028Z,1023.65
2019-02-06T04:41:53.014Z,1023.71
2019-02-06T04:42:53.074Z,1023.69
2019-02-06T04:43:53.003Z,1023.78
2019-02-06T04:44:52.969Z,1023.71
2019-02-06T04:45:52.990Z,1023.72
2019-02-06T04:46:52.963Z,1023.69
2019-02-06T04:47:52.942Z,1023.65
2019-02-06T04:48:52.934Z,1023.63
2019-02-06T04:49:52.918Z,1023.63
2019-02-06T04:50:52.916Z,1023.59
2019-02-06T04:51:52.898Z,1023.64
2019-02-06T04:52:52.896Z,1023.63
2019-02-06T04:53:52.868Z,1023.62
2019-02-06T04:54:52.861Z,1023.63
2019-02-06T04:55:52.868Z,1023.71
2019-02-06T04:56:52.848Z,1023.62
2019-02-06T04:57:52.835Z,1023.63
2019-02-06T04:58:52.817Z,1023.62
2019-02-06T04:59:52.833Z,1023.60
2019-02-06T05:00:52.794Z,1023.59
2019-02-06T05:01:52.804Z,1023.57
2019-02-06T05:02:52.777Z,1023.59
2019-02-06T05:03:52.767Z,1023.56
2019-02-06T05:04:52.751Z,1023.60
2019-02-06T05:05:52.737Z,1023.58
2019-02-06T05:06:52.746Z,1023.59
2019-02-06T05:07:52.752Z,1023.61
2019-02-06T05:08:52.707Z,1023.59
2019-02-06T05:09:52.704Z,1023.55
2019-02-06T05:10:52.684Z,1023.55
2019-02-06T05:11:52.691Z,1023.55
2019-02-06T05:12:52.657Z,1023.56
2019-02-06T05:13:52.649Z,1023.49
2019-02-06T05:14:52.666Z,1023.53
2019-02-06T05:15:52.624Z,1023.55
2019-02-06T05:16:52.616Z,1023.51
2019-02-06T05:17:55.788Z,1023.53
2019-02-06T05:18:52.668Z,1023.55
2019-02-06T05:19:52.587Z,1023.60
2019-02-06T05:20:52.570Z,1023.58
2019-02-06T05:21:52.562Z,1023.53
2019-02-06T05:22:52.570Z,1023.57
2019-02-06T05:23:52.532Z,1023.60
2019-02-06T05:24:52.532Z,1023.60
2019-02-06T05:25:52.528Z,1023.57
2019-02-06T05:26:52.512Z,1023.55
2019-02-06T05:27:52.511Z,1023.52
2019-02-06T05:28:52.543Z,1023.54
2019-02-06T05:29:52.468Z,1023.60
2019-02-06T05:30:52.461Z,1023.61
2019-02-06T05:31:52.453Z,1023.59
2019-02-06T05:32:52.468Z,1023.58
2019-02-06T05:33:52.426Z,1023.56
2019-02-06T05:34:52.416Z,1023.54
2019-02-06T05:35:52.425Z,1023.56
2019-02-06T05:36:52.401Z,1023.54
2019-02-06T05:37:52.394Z,1023.61
2019-02-06T05:38:52.399Z,1023.58
2019-02-06T05:39:52.366Z,1023.57
2019-02-06T05:40:52.348Z,1023.56
2019-02-06T05:41:52.348Z,1023.55
2019-02-06T05:42:52.871Z,1023.57
2019-02-06T05:43:52.338Z,1023.55
2019-02-06T05:44:52.302Z,1023.54
2019-02-06T05:45:52.296Z,1023.59
2019-02-06T05:46:52.288Z,1023.65
2019-02-06T05:47:52.272Z,1023.63
2019-02-06T05:48:52.280Z,1023.60
2019-02-06T05:49:52.262Z,1023.59
2019-02-06T05:50:52.244Z,1023.62
2019-02-06T05:51:52.227Z,1023.68
2019-02-06T05:52:52.221Z,1023.67
2019-02-06T05:53:52.239Z,1023.60
2019-02-06T05:54:52.194Z,1023.62
2019-02-06T05:55:52.203Z,1023.61
2019-02-06T05:56:52.170Z,1023.61
2019-02-06T05:57:52.162Z,1023.57
2019-02-06T05:58:52.152Z,1023.57
2019-02-06T05:59:52.166Z,1023.53
2019-02-06T06:00:52.133Z,1023.55
2019-02-06T06:01:52.130Z,1023.53
2019-02-06T06:02:52.114Z,1023.54
2019-02-06T06:03:52.098Z,1023.51
2019-02-06T06:04:52.108Z,1023.53
2019-02-06T06:05:52.078Z,1023.51
2019-02-06T06:06:52.073Z,1023.57
2019-02-06T06:07:52.050Z,1023.58
2019-02-06T06:08:52.037Z,1023.56
2019-02-06T06:09:52.054Z,1023.58
2019-02-06T06:10:52.025Z,1023.62
2019-02-06T06:11:52.012Z,1023.56
2019-02-06T06:12:52.001Z,1023.63
2019-02-06T06:13:51.982Z,1023.63
2019-02-06T06:14:52.120Z,1023.57
2019-02-06T06:15:51.964Z,1023.61
2019-02-06T06:16:51.973Z,1023.61
2019-02-06T06:17:51.994Z,1023.57
2019-02-06T06:18:51.938Z,1023.60
2019-02-06T06:19:51.924Z,1023.62
2019-02-06T06:20:51.904Z,1023.61
2019-02-06T06:21:51.926Z,1023.58
2019-02-06T06:22:51.895Z,1023.57
2019-02-06T06:23:51.884Z,1023.61
2019-02-06T06:24:51.874Z,1023.55
2019-02-06T06:25:51.878Z,1023.57
2019-02-06T06:26:51.852Z,1023.54
2019-02-06T06:27:51.833Z,1023.57
2019-02-06T06:28:51.818Z,1023.60
2019-02-06T06:29:51.814Z,1023.52
2019-02-06T06:30:51.822Z,1023.52
2019-02-06T06:31:51.785Z,1023.53
2019-02-06T06:32:51.780Z,1023.52
2019-02-06T06:33:51.774Z,1023.51
2019-02-06T06:34:51.754Z,1023.52
2019-02-06T06:35:51.764Z,1023.53
2019-02-06T06:36:51.748Z,1023.52
2019-02-06T06:37:59.913Z,1023.54
2019-02-06T06:38:52.706Z,1023.56
2019-02-06T06:39:51.713Z,1023.46
2019-02-06T06:40:51.685Z,1023.54
2019-02-06T06:41:51.693Z,1023.53
2019-02-06T06:42:51.668Z,1023.54
2019-02-06T06:43:51.651Z,1023.50
2019-02-06T06:44:51.641Z,1023.50
2019-02-06T06:45:51.646Z,1023.46
2019-02-06T06:46:51.648Z,1023.52
2019-02-06T06:47:51.608Z,1023.49
2019-02-06T06:48:51.608Z,1023.50
2019-02-06T06:49:51.595Z,1023.53
2019-02-06T06:50:51.578Z,1023.50
2019-02-06T06:51:51.580Z,1023.49
2019-02-06T06:52:51.553Z,1023.52
2019-02-06T06:53:51.541Z,1023.50
2019-02-06T06:54:51.525Z,1023.48
2019-02-06T06:55:51.522Z,1023.48
2019-02-06T06:56:51.531Z,1023.51
2019-02-06T06:57:51.526Z,1023.46
2019-02-06T06:58:51.486Z,1023.47
2019-02-06T06:59:51.473Z,1023.47
2019-02-06T07:00:51.465Z,1023.43
2019-02-06T07:01:51.469Z,1023.43
2019-02-06T07:02:51.457Z,1023.39
2019-02-06T07:03:51.438Z,1023.40
2019-02-06T07:04:51.413Z,1023.45
2019-02-06T07:05:51.415Z,1023.42
2019-02-06T07:06:51.449Z,1023.45
2019-02-06T07:07:51.385Z,1023.42
2019-02-06T07:08:51.374Z,1023.44
2019-02-06T07:09:51.363Z,1023.40
2019-02-06T07:10:51.350Z,1023.40
2019-02-06T07:11:51.343Z,1023.38
2019-02-06T07:12:51.344Z,1023.34
2019-02-06T07:13:51.714Z,1023.37
2019-02-06T07:14:51.314Z,1023.36
2019-02-06T07:15:51.301Z,1023.35
2019-02-06T07:16:51.286Z,1023.33
2019-02-06T07:17:51.293Z,1023.30
2019-02-06T07:18:51.377Z,1023.32
2019-02-06T07:19:51.249Z,1023.32
2019-02-06T07:20:51.243Z,1023.32
2019-02-06T07:21:51.249Z,1023.34
2019-02-06T07:22:51.241Z,1023.31
2019-02-06T07:23:51.205Z,1023.30
2019-02-06T07:24:51.200Z,1023.27
2019-02-06T07:25:51.181Z,1023.20
2019-02-06T07:26:51.179Z,1023.21
2019-02-06T07:27:51.198Z,1023.13
2019-02-06T07:28:51.150Z,1023.12
2019-02-06T07:29:51.139Z,1023.13
2019-02-06T07:30:51.127Z,1023.13
2019-02-06T07:31:51.117Z,1023.10
2019-02-06T07:32:51.141Z,1023.05
2019-02-06T07:33:51.091Z,1022.99
2019-02-06T07:34:51.078Z,1023.02
2019-02-06T07:35:51.082Z,1022.97
2019-02-06T07:36:51.066Z,1022.98
2019-02-06T07:37:51.064Z,1022.94
2019-02-06T07:38:51.064Z,1022.99
2019-02-06T07:39:51.022Z,1022.97
2019-02-06T07:40:51.015Z,1023.02
2019-02-06T07:41:51.017Z,1022.99
2019-02-06T07:42:50.995Z,1023.04
2019-02-06T07:43:51.060Z,1023.06
2019-02-06T07:44:50.968Z,1023.08
2019-02-06T07:45:50.964Z,1023.04
2019-02-06T07:46:50.946Z,1023.06
2019-02-06T07:47:50.937Z,1023.08
2019-02-06T07:48:50.941Z,1023.11
2019-02-06T07:49:50.914Z,1023.07
2019-02-06T07:50:50.903Z,1023.13
2019-02-06T07:51:50.892Z,1023.12
2019-02-06T07:52:50.888Z,1023.12
2019-02-06T07:53:50.893Z,1023.12
2019-02-06T07:54:50.860Z,1023.11
2019-02-06T07:55:50.859Z,1023.08
2019-02-06T07:56:50.841Z,1023.11
2019-02-06T07:57:50.827Z,1023.08
2019-02-06T07:58:50.964Z,1023.13
2019-02-06T07:59:50.806Z,1023.17
2019-02-06T08:00:50.802Z,1023.16
2019-02-06T08:01:50.790Z,1023.16
2019-02-06T08:02:50.782Z,1023.13
2019-02-06T08:03:50.780Z,1023.16
2019-02-06T08:04:50.754Z,1023.18
2019-02-06T08:05:50.735Z,1023.20
2019-02-06T08:06:50.733Z,1023.20
2019-02-06T08:07:50.715Z,1023.22
2019-02-06T08:08:50.738Z,1023.24
2019-02-06T08:09:50.704Z,1023.25
2019-02-06T08:10:50.694Z,1023.27
2019-02-06T08:11:50.672Z,1023.22
2019-02-06T08:12:50.716Z,1023.21
2019-02-06T08:13:50.672Z,1023.20
2019-02-06T08:14:50.647Z,1023.21
2019-02-06T08:15:50.626Z,1023.24
2019-02-06T08:16:50.634Z,1023.23
2019-02-06T08:17:50.615Z,1023.26
2019-02-06T08:18:50.626Z,1023.23
2019-02-06T08:19:50.584Z,1023.26
2019-02-06T08:20:50.574Z,1023.20
2019-02-06T08:21:50.562Z,1023.22
2019-02-06T08:22:50.552Z,1023.21
2019-02-06T08:23:50.655Z,1023.19
2019-02-06T08:24:50.550Z,1023.20
2019-02-06T08:25:50.516Z,1023.21
2019-02-06T08:26:50.512Z,1023.23
2019-02-06T08:27:50.494Z,1023.21
2019-02-06T08:28:50.590Z,1023.21
2019-02-06T08:29:50.488Z,1023.20
2019-02-06T08:30:50.457Z,1023.19
2019-02-06T08:31:50.454Z,1023.18
2019-02-06T08:32:50.438Z,1023.14
2019-02-06T08:33:50.428Z,1023.14
2019-02-06T08:34:50.450Z,1023.10
2019-02-06T08:35:50.428Z,1023.06
2019-02-06T08:36:50.394Z,1023.01
2019-02-06T08:37:50.392Z,1023.01
2019-02-06T08:38:50.380Z,1022.98
2019-02-06T08:39:50.372Z,1022.93
2019-02-06T08:40:50.352Z,1022.90
2019-02-06T08:41:50.341Z,1022.88
2019-02-06T08:42:50.433Z,1022.91
2019-02-06T08:43:50.319Z,1022.92
2019-02-06T08:44:50.325Z,1022.99
2019-02-06T08:45:50.294Z,1022.91
2019-02-06T08:46:50.283Z,1022.91
2019-02-06T08:47:50.280Z,1022.90
2019-02-06T08:48:50.268Z,1022.87
2019-02-06T08:49:50.273Z,1022.88
2019-02-06T08:50:50.237Z,1022.88
2019-02-06T08:51:50.234Z,1022.87
2019-02-06T08:52:50.226Z,1022.90
2019-02-06T08:53:50.210Z,1022.87
2019-02-06T08:54:50.237Z,1022.92
2019-02-06T08:55:50.183Z,1022.85
2019-02-06T08:56:50.171Z,1022.88
2019-02-06T08:57:50.158Z,1022.87
2019-02-06T08:58:50.155Z,1022.88
2019-02-06T08:59:50.168Z,1022.84
2019-02-06T09:00:50.125Z,1022.76
2019-02-06T09:01:50.115Z,1022.78
2019-02-06T09:02:50.103Z,1022.78
2019-02-06T09:03:50.099Z,1022.70
2019-02-06T09:04:55.796Z,1022.67
2019-02-06T09:05:51.098Z,1022.66
2019-02-06T09:06:50.067Z,1022.65
2019-02-06T09:07:50.054Z,1022.64
2019-02-06T09:08:59.392Z,1022.65
2019-02-06T09:09:51.030Z,1022.64
2019-02-06T09:10:50.036Z,1022.66
2019-02-06T09:11:50.002Z,1022.62
2019-02-06T09:12:49.992Z,1022.63
2019-02-06T09:13:49.976Z,1022.62
2019-02-06T09:14:49.970Z,1022.60
2019-02-06T09:15:49.978Z,1022.63
2019-02-06T09:16:49.952Z,1022.55
2019-02-06T09:17:49.938Z,1022.56
2019-02-06T09:18:49.927Z,1022.58
2019-02-06T09:19:49.912Z,1022.62
2019-02-06T09:20:52.720Z,1022.68
2019-02-06T09:21:49.904Z,1022.69
2019-02-06T09:22:49.887Z,1022.71
2019-02-06T09:23:49.869Z,1022.67
2019-02-06T09:24:49.858Z,1022.74
2019-02-06T09:25:49.869Z,1022.77
2019-02-06T09:26:49.836Z,1022.76
2019-02-06T09:27:49.846Z,1022.74
2019-02-06T09:28:49.821Z,1022.68
2019-02-06T09:29:49.801Z,1022.68
2019-02-06T09:30:49.820Z,1022.63
2019-02-06T09:31:49.795Z,1022.63
2019-02-06T09:32:49.768Z,1022.59
2019-02-06T09:33:49.766Z,1022.57
2019-02-06T09:34:49.747Z,1022.64
2019-02-06T09:35:49.763Z,1022.60
2019-02-06T09:36:49.726Z,1022.61
2019-02-06T09:37:49.716Z,1022.60
2019-02-06T09:38:49.732Z,1022.68
2019-02-06T09:39:49.704Z,1022.65
2019-02-06T09:40:49.853Z,1022.67
2019-02-06T09:41:49.692Z,1022.66
2019-02-06T09:42:49.670Z,1022.67
2019-02-06T09:43:49.647Z,1022.66
2019-02-06T09:44:49.637Z,1022.67
2019-02-06T09:45:49.635Z,1022.65
2019-02-06T09:46:49.647Z,1022.61
2019-02-06T09:47:49.608Z,1022.58
2019-02-06T09:48:49.594Z,1022.61
2019-02-06T09:49:50.033Z,1022.57
2019-02-06T09:50:49.573Z,1022.58
2019-02-06T09:51:49.580Z,1022.55
2019-02-06T09:52:49.549Z,1022.54
2019-02-06T09:53:49.533Z,1022.49
2019-02-06T09:54:49.532Z,1022.43
2019-02-06T09:55:49.517Z,1022.48
2019-02-06T09:56:50.709Z,1022.48
2019-02-06T09:57:49.487Z,1022.38
2019-02-06T09:58:49.480Z,1022.49
2019-02-06T09:59:49.467Z,1022.45
2019-02-06T10:00:49.455Z,1022.56
2019-02-06T10:01:49.465Z,1022.47
2019-02-06T10:02:49.448Z,1022.49
2019-02-06T10:03:49.423Z,1022.48
2019-02-06T10:04:49.415Z,1022.42
2019-02-06T10:05:49.414Z,1022.52
2019-02-06T10:06:49.412Z,1022.51
2019-02-06T10:07:49.386Z,1022.47
2019-02-06T10:08:49.369Z,1022.49
2019-02-06T10:09:49.355Z,1022.47
2019-02-06T10:10:49.343Z,1022.43
2019-02-06T10:11:49.366Z,1022.36
2019-02-06T10:12:49.321Z,1022.32
2019-02-06T10:13:49.315Z,1022.35
2019-02-06T10:14:49.300Z,1022.37
2019-02-06T10:15:49.296Z,1022.35
2019-02-06T10:16:49.300Z,1022.33
2019-02-06T10:17:49.264Z,1022.28
2019-02-06T10:18:49.267Z,1022.32
2019-02-06T10:19:49.248Z,1022.25
2019-02-06T10:20:49.233Z,1022.24
2019-02-06T10:21:52.859Z,1022.28
2019-02-06T10:22:49.213Z,1022.25
2019-02-06T10:23:49.204Z,1022.23
2019-02-06T10:24:49.213Z,1022.21
2019-02-06T10:25:49.176Z,1022.16
2019-02-06T10:26:49.180Z,1022.14
2019-02-06T10:27:49.155Z,1022.14
2019-02-06T10:28:49.145Z,1022.10
2019-02-06T10:29:49.134Z,1022.04
2019-02-06T10:30:49.137Z,1022.15
2019-02-06T10:31:49.134Z,1022.10
2019-02-06T10:32:49.093Z,1022.09
2019-02-06T10:33:49.087Z,1022.09
2019-02-06T10:34:49.188Z,1022.07
2019-02-06T10:35:51.976Z,1022.09
2019-02-06T10:36:49.082Z,1022.04
2019-02-06T10:37:49.043Z,1021.97
2019-02-06T10:38:49.027Z,1021.87
2019-02-06T10:39:49.021Z,1021.86
2019-02-06T10:40:49.006Z,1021.83
2019-02-06T10:41:49.023Z,1021.76
2019-02-06T10:42:48.993Z,1021.75
2019-02-06T10:43:48.981Z,1021.72
2019-02-06T10:44:48.957Z,1021.74
2019-02-06T10:45:48.945Z,1021.73
2019-02-06T10:46:49.004Z,1021.72
2019-02-06T10:47:48.948Z,1021.72
2019-02-06T10:48:48.946Z,1021.75
2019-02-06T10:49:48.908Z,1021.83
2019-02-06T10:50:48.893Z,1021.75
2019-02-06T10:51:49.046Z,1021.68
2019-02-06T10:52:48.887Z,1021.68
2019-02-06T10:53:48.871Z,1021.74
2019-02-06T10:54:48.848Z,1021.80
2019-02-06T10:55:48.839Z,1021.62
2019-02-06T10:56:48.826Z,1021.57
2019-02-06T10:57:48.842Z,1021.60
2019-02-06T10:58:48.805Z,1021.59
2019-02-06T10:59:48.796Z,1021.50
2019-02-06T11:00:48.781Z,1021.53
2019-02-06T11:01:48.770Z,1021.51
2019-02-06T11:02:48.781Z,1021.47
2019-02-06T11:03:48.753Z,1021.47
2019-02-06T11:04:48.743Z,1021.47
2019-02-06T11:05:48.720Z,1021.42
2019-02-06T11:06:48.720Z,1021.40
2019-02-06T11:07:48.767Z,1021.41
2019-02-06T11:08:48.691Z,1021.37
2019-02-06T11:09:48.682Z,1021.39
2019-02-06T11:10:48.664Z,1021.37
2019-02-06T11:11:48.660Z,1021.34
2019-02-06T11:12:48.666Z,1021.26
2019-02-06T11:13:49.858Z,1021.31
2019-02-06T11:14:48.635Z,1021.30
2019-02-06T11:15:48.613Z,1021.28
2019-02-06T11:16:48.599Z,1021.28
2019-02-06T11:17:48.609Z,1021.24
2019-02-06T11:18:48.580Z,1021.27
2019-02-06T11:19:48.577Z,1021.16
2019-02-06T11:20:48.555Z,1021.27
2019-02-06T11:21:48.547Z,1021.26
2019-02-06T11:22:48.570Z,1021.20
2019-02-06T11:23:48.520Z,1021.20
2019-02-06T11:24:48.507Z,1021.22
2019-02-06T11:25:48.504Z,1021.20
2019-02-06T11:26:48.489Z,1021.16
2019-02-06T11:27:48.495Z,1021.18
2019-02-06T11:28:48.461Z,1021.07
2019-02-06T11:29:48.688Z,1021.14
2019-02-06T11:30:48.450Z,1021.07
2019-02-06T11:31:48.455Z,1021.12
2019-02-06T11:32:48.459Z,1021.15
2019-02-06T11:33:48.424Z,1021.22
2019-02-06T11:34:48.410Z,1021.18
2019-02-06T11:35:48.387Z,1021.14
2019-02-06T11:36:48.378Z,1021.17
2019-02-06T11:37:48.385Z,1021.18
2019-02-06T11:38:48.362Z,1021.14
2019-02-06T11:39:57.629Z,1021.11
2019-02-06T11:40:49.338Z,1021.12
2019-02-06T11:41:48.324Z,1021.13
2019-02-06T11:42:48.339Z,1021.13
2019-02-06T11:43:48.290Z,1021.17
2019-02-06T11:44:48.284Z,1021.00
2019-02-06T11:45:48.273Z,1021.04
2019-02-06T11:46:48.255Z,1021.03
2019-02-06T11:47:48.258Z,1020.89
2019-02-06T11:48:48.270Z,1020.95
2019-02-06T11:49:48.232Z,1020.90
2019-02-06T11:50:48.225Z,1020.88
2019-02-06T11:51:48.204Z,1020.94
2019-02-06T11:52:48.192Z,1020.86
2019-02-06T11:53:48.199Z,1020.75
2019-02-06T11:54:48.189Z,1020.79
2019-02-06T11:55:48.249Z,1020.77
2019-02-06T11:56:48.151Z,1020.73
2019-02-06T11:57:48.622Z,1020.72
2019-02-06T11:58:48.139Z,1020.74
2019-02-06T11:59:48.122Z,1020.79
2019-02-06T12:00:48.777Z,1020.69
2019-02-06T12:01:48.083Z,1020.77
2019-02-06T12:02:48.077Z,1020.69
2019-02-06T12:03:48.095Z,1020.74
2019-02-06T12:04:48.070Z,1020.67
2019-02-06T12:05:48.066Z,1020.61